Salthill, Ireland

12:49 PM IST on July 24, 2016 (GMT +0100)
Rahoon | | Change Station

Elev 105 ft 53.27 °N, 9.09 °W | Updated 3 seconds ago

Mostly Cloudy
Mostly Cloudy
62.0 °F
Feels Like 62.0 °F
N
0.0
Wind Variable Wind from West
Gusts 11.0 mph

Today
High -- | Low -- °F
--% Chance of Precip.
Yesterday
High -- | Low -- °F
Precip. -- in
Pressure 29.98 in
Visibility 6.2 miles
Clouds Few 1500 ft
Mostly Cloudy 3000 ft
Dew Point 59 °F
Humidity 89%
Rainfall 0.05 in
Snow Depth Not available.
5:40 AM 9:43 PM
Waning Gibbous, 77% visible
METAR EINN 241130Z 24017KT 9999 FEW015 BKN030 17/13 Q1015 NOSIG
Pressure 29.98 in
Visibility 6.2 miles
Clouds Few 1500 ft
Mostly Cloudy 3000 ft
Dew Point 59 °F
Humidity 89%
Rainfall 0.05 in
Snow Depth Not available.
5:40 AM 9:43 PM
Waning Gibbous, 77% visible
METAR EINN 241130Z 24017KT 9999 FEW015 BKN030 17/13 Q1015 NOSIG

10-Day Weather Forecast

×

Almanac

Astronomy

Jul. 24, 2016 Rise Set
Actual Time
Civil Twilight
Nautical Twilight
Astronomical Twilight
Moon
Length of Visible Light
Length of Day
Tomorrow will be .
, % of the Moon is Illuminated

Today's Extremes

Country Highs Country Lows

Community

WunderPhotos

Upload Photos

1,927,049 photos uploaded!

WunderBlog® & News

Nearby

Air Quality

  Air Quality AQ Index Pollutant
Not available.

Snow Depth

Station Depth Elevation

Earthquake Activity

City Distance Mag. Time & Date
Minimum magnitude displayed is 2.5.

Coastal Water Temperatures

Place Temperature

Stations

Nearby Weather Stations

Station Location Temp. Windchill Dew Point Humidity Wind Precip. Elev Updated Type